Time;durP1;ratioP1;P1;durP2;ratioP2;P2;SDS_P1;SDS_P2;PMS_P1;PMS_P2;Temp;Humidity;BMP_temperature;BMP_pressure;BME280_temperature;BME280_humidity;BME280_pressure;Samples;Min_cycle;Max_cycle;Signal;HPM_P1;HPM_P2
2023/07/20 00:04:30;1832896.00;6.11;3286.66;0.00;0.00;0.62;;;;;25.90;1.00;;;;;;2320308;40;3550;-88
2023/07/20 00:11:54;1693581.00;5.65;3012.96;85963.00;0.29;149.34;;;;;25.70;1.00;;;;;;2025900;40;3597;-89
2023/07/20 00:26:54;932851.00;3.11;1613.89;0.00;0.00;0.62;;;;;26.00;1.00;;;;;;2174901;56;3622;-87
2023/07/20 00:29:20;184597.00;0.62;319.41;0.00;0.00;0.62;;;;;25.70;1.00;;;;;;2379215;39;3664;-87
2023/07/20 00:49:20;944152.00;3.15;1633.80;0.00;0.00;0.62;;;;;26.30;1.00;;;;;;2348494;39;3662;31
2023/07/20 00:56:46;926418.00;3.09;1602.57;0.00;0.00;0.62;;;;;25.90;1.00;;;;;;1573681;40;3555;-89
2023/07/20 00:59:14;648495.00;2.16;1118.03;61613.00;0.21;107.27;;;;;25.80;1.00;;;;;;2355976;40;3700;-88
2023/07/20 01:04:09;1617822.00;5.39;2866.85;0.00;0.00;0.62;;;;;25.80;1.00;;;;;;825044;40;3433;-90
2023/07/20 01:14:05;1391002.00;4.64;2439.65;152738.00;0.51;264.53;;;;;25.70;1.00;;;;;;1578853;40;3374;-90
2023/07/20 01:29:25;1493155.00;4.98;2630.25;69797.00;0.23;121.41;;;;;25.50;1.00;;;;;;2278528;61;1035;-90
2023/07/20 01:31:55;321549.00;1.07;554.96;66092.00;0.22;115.01;;;;;25.50;1.00;;;;;;2276826;61;1546;-90
2023/07/20 02:06:51;1366469.00;4.55;2394.28;66231.00;0.22;115.25;;;;;25.40;1.00;;;;;;2230774;39;3456;-89
2023/07/20 02:34:15;1779773.00;5.93;3181.50;48705.00;0.16;84.95;;;;;25.30;1.00;;;;;;2278504;61;1001;-90
2023/07/20 02:36:42;741875.00;2.47;1279.93;34415.00;0.11;60.22;;;;;25.40;1.00;;;;;;2276684;61;1215;-91
2023/07/20 02:39:10;721344.00;2.40;1244.27;31658.00;0.11;55.45;;;;;25.20;1.00;;;;;;2398201;40;3822;-90
2023/07/20 02:56:35;2108477.00;7.03;3849.50;75494.00;0.25;131.25;;;;;24.80;1.00;;;;;;818324;40;3534;-90
2023/07/20 03:36:20;1034296.00;3.45;1793.31;0.00;0.00;0.62;;;;;24.10;1.00;;;;;;2277464;61;1411;-87
2023/07/20 03:46:15;1477723.00;4.93;2601.27;0.00;0.00;0.62;;;;;24.00;1.00;;;;;;825524;40;3407;-89
2023/07/20 04:11:11;1402598.00;4.68;2461.14;38932.00;0.13;68.04;;;;;23.80;1.00;;;;;;2282380;60;1402;-87
2023/07/20 04:18:41;1317747.00;4.39;2304.62;0.00;0.00;0.62;;;;;23.80;1.00;;;;;;2339237;39;3691;-86
2023/07/20 04:21:09;928659.00;3.10;1606.51;0.00;0.00;0.62;;;;;23.80;1.00;;;;;;2281942;60;2001;-88
2023/07/20 04:23:36;199450.00;0.66;344.98;0.00;0.00;0.62;;;;;23.80;1.00;;;;;;2280691;60;1741;-88
2023/07/20 04:31:13;836700.00;2.79;1445.21;0.00;0.00;0.62;;;;;23.70;1.00;;;;;;2278729;61;1357;-87
2023/07/20 04:36:09;1637399.00;5.46;2904.43;0.00;0.00;0.62;;;;;23.80;1.00;;;;;;2274711;61;1291;-88
2023/07/20 04:38:36;107685.00;0.36;186.84;0.00;0.00;0.62;;;;;23.90;1.00;;;;;;2272519;61;1254;-88
2023/07/20 04:41:03;201406.00;0.67;348.34;0.00;0.00;0.62;;;;;23.80;1.00;;;;;;2272448;61;1960;-87
2023/07/20 04:48:27;992929.00;3.31;1719.95;0.00;0.00;0.62;;;;;23.70;1.00;;;;;;2278346;61;1399;-88
2023/07/20 04:53:23;1903862.00;6.35;3428.75;0.00;0.00;0.62;;;;;23.70;1.00;;;;;;1948108;40;3552;-88
2023/07/20 04:55:54;217899.00;0.73;376.73;0.00;0.00;0.62;;;;;24.00;1.00;;;;;;2276530;61;1633;-88
2023/07/20 05:03:19;983919.00;3.28;1704.01;0.00;0.00;0.62;;;;;24.00;1.00;;;;;;2277875;61;1384;-89
2023/07/20 05:08:24;977491.00;3.26;1692.65;98600.00;0.33;171.16;;;;;24.20;1.00;;;;;;2279083;61;1306;-88
2023/07/20 05:10:51;152042.00;0.51;263.33;0.00;0.00;0.62;;;;;24.20;1.00;;;;;;2276550;61;1584;-89
2023/07/20 05:15:53;886104.00;2.95;1531.73;0.00;0.00;0.62;;;;;24.30;1.00;;;;;;2278475;61;1415;-86
2023/07/20 05:18:20;347600.00;1.16;599.74;42540.00;0.14;74.28;;;;;24.60;1.00;;;;;;2276203;61;1130;-88
2023/07/20 05:20:48;129958.00;0.43;225.26;0.00;0.00;0.62;;;;;24.70;1.00;;;;;;2338824;39;3814;-90
2023/07/20 05:23:15;552718.00;1.84;952.64;0.00;0.00;0.62;;;;;24.90;1.00;;;;;;2276215;61;1419;-87
2023/07/20 05:28:12;774078.00;2.58;1335.95;0.00;0.00;0.62;;;;;24.80;1.00;;;;;;2278159;61;1415;-87
2023/07/20 05:30:39;302007.00;1.01;521.37;17796.00;0.06;31.45;;;;;25.00;1.00;;;;;;2276445;61;1603;-88
2023/07/20 05:33:06;182604.00;0.61;315.97;0.00;0.00;0.62;;;;;24.80;1.00;;;;;;2276406;61;1382;-88
2023/07/20 05:48:04;1127159.00;3.76;1959.06;29131.00;0.10;51.08;;;;;24.50;1.00;;;;;;2009697;40;4111;-89
2023/07/20 05:50:31;112938.00;0.38;195.90;0.00;0.00;0.62;;;;;24.40;1.00;;;;;;2276423;61;1654;-89
2023/07/20 05:52:58;35265.00;0.12;61.70;0.00;0.00;0.62;;;;;24.50;1.00;;;;;;2276353;61;1711;-87
2023/07/20 05:57:55;689912.00;2.30;1189.75;27681.00;0.09;48.57;;;;;23.90;1.00;;;;;;2277742;61;1404;-88
2023/07/20 06:00:26;345629.00;1.15;596.35;3699.00;0.01;7.03;;;;;23.80;1.00;;;;;;2276049;61;2000;-87
2023/07/20 06:02:53;93607.00;0.31;162.54;0.00;0.00;0.62;;;;;24.00;1.00;;;;;;2276192;61;1716;-88
2023/07/20 06:05:21;258964.00;0.86;447.37;0.00;0.00;0.62;;;;;24.30;1.00;;;;;;2276352;61;1210;-87
2023/07/20 06:07:48;287923.00;0.96;497.16;22560.00;0.08;39.70;;;;;24.60;1.00;;;;;;2276380;61;1058;-88
2023/07/20 06:10:16;186836.00;0.62;323.26;0.00;0.00;0.62;;;;;24.70;1.00;;;;;;2276349;61;1753;-88
2023/07/20 06:12:42;305487.00;1.02;527.35;6943.00;0.02;12.65;;;;;24.80;1.00;;;;;;2276267;61;1279;-87
2023/07/20 06:17:45;975120.00;3.25;1688.46;64598.00;0.22;112.42;;;;;25.30;1.00;;;;;;2277732;61;1697;-88
2023/07/20 06:20:13;292549.00;0.98;505.11;0.00;0.00;0.62;;;;;25.20;1.00;;;;;;2276248;61;1988;-87
2023/07/20 06:22:41;216064.00;0.72;373.57;0.00;0.00;0.62;;;;;25.40;1.00;;;;;;2276378;61;1383;-88
2023/07/20 06:25:08;215608.00;0.72;372.79;0.00;0.00;0.62;;;;;25.40;1.00;;;;;;2276276;61;1028;-87
2023/07/20 06:27:35;85613.00;0.29;148.73;0.00;0.00;0.62;;;;;25.50;1.00;;;;;;2276195;61;1657;-88
2023/07/20 06:30:02;343028.00;1.14;591.88;40360.00;0.13;70.51;;;;;26.10;1.00;;;;;;2276222;61;1655;-88
2023/07/20 06:32:29;162273.00;0.54;280.96;0.00;0.00;0.62;;;;;26.20;1.00;;;;;;2276340;61;1284;-89
2023/07/20 06:34:56;150420.00;0.50;260.53;0.00;0.00;0.62;;;;;26.30;1.00;;;;;;2276353;61;1764;-87
2023/07/20 06:37:23;603455.00;2.01;1040.19;109298.00;0.36;189.62;;;;;25.90;1.00;;;;;;2276244;61;1562;-88
2023/07/20 06:39:52;344872.00;1.15;595.05;0.00;0.00;0.62;;;;;25.90;1.00;;;;;;2320607;40;3622;-89
2023/07/20 06:42:19;111565.00;0.37;193.53;0.00;0.00;0.62;;;;;26.00;1.00;;;;;;2276214;61;1709;-87
2023/07/20 06:44:46;175987.00;0.59;304.58;0.00;0.00;0.62;;;;;26.10;1.00;;;;;;2276293;61;1683;-87
2023/07/20 06:47:13;92382.00;0.31;160.42;0.00;0.00;0.62;;;;;26.30;1.00;;;;;;2276252;61;1032;-87
2023/07/20 06:49:40;425056.00;1.42;732.88;34831.00;0.12;60.94;;;;;26.40;1.00;;;;;;2276248;61;1038;-87
2023/07/20 06:52:08;140348.00;0.47;243.17;0.00;0.00;0.62;;;;;26.20;1.00;;;;;;2276151;61;1724;-88
2023/07/20 06:54:35;81192.00;0.27;141.10;0.00;0.00;0.62;;;;;26.60;1.00;;;;;;2276162;61;1005;-88
2023/07/20 06:57:03;210272.00;0.70;363.60;0.00;0.00;0.62;;;;;26.60;1.00;;;;;;2276240;61;1066;-88
2023/07/20 06:59:30;182806.00;0.61;316.32;0.00;0.00;0.62;;;;;26.70;1.00;;;;;;2276182;61;1141;-89
2023/07/20 07:04:27;946333.00;3.15;1637.65;0.00;0.00;0.62;;;;;27.70;1.00;;;;;;2278073;61;1338;-90
2023/07/20 07:06:53;146488.00;0.49;253.75;0.00;0.00;0.62;;;;;27.90;1.00;;;;;;2276039;61;1796;-89
2023/07/20 07:11:57;219663.00;0.73;379.76;0.00;0.00;0.62;;;;;27.90;1.00;;;;;;1499924;40;3213;-90
2023/07/20 07:14:25;111751.00;0.37;193.85;0.00;0.00;0.62;;;;;28.10;1.00;;;;;;2276059;61;1052;-88
2023/07/20 07:16:52;0.00;0.00;0.62;0.00;0.00;0.62;;;;;29.00;1.00;;;;;;2276790;61;1140;-87
2023/07/20 07:19:19;1050717.00;3.50;1822.51;164477.00;0.55;284.75;;;;;29.40;1.00;;;;;;2276814;61;1105;-87
2023/07/20 07:21:46;735328.00;2.45;1268.56;18228.00;0.06;32.20;;;;;29.60;1.00;;;;;;2276970;61;1936;-86
2023/07/20 07:24:12;851349.00;2.84;1470.83;56888.00;0.19;99.10;;;;;30.00;1.00;;;;;;2277036;61;1086;-87
2023/07/20 07:26:39;1036888.00;3.46;1797.92;55004.00;0.18;95.84;;;;;29.60;1.00;;;;;;2277016;61;1118;-88
2023/07/20 07:29:06;1003798.00;3.35;1739.20;155305.00;0.52;268.95;;;;;29.30;1.00;;;;;;2277047;61;1154;-87
2023/07/20 07:31:38;201744.00;0.67;348.93;65792.00;0.22;114.49;;;;;29.50;1.00;;;;;;2276944;61;1408;-88
2023/07/20 07:34:05;472118.00;1.57;813.83;108973.00;0.36;189.06;;;;;29.10;1.00;;;;;;2277009;61;1141;-88
2023/07/20 07:36:32;272501.00;0.91;470.64;0.00;0.00;0.62;;;;;29.20;1.00;;;;;;2276970;61;1066;-88
2023/07/20 07:38:59;0.00;0.00;0.62;0.00;0.00;0.62;;;;;29.10;1.00;;;;;;2276945;61;1113;-88
2023/07/20 07:41:26;0.00;0.00;0.62;0.00;0.00;0.62;;;;;29.60;1.00;;;;;;2276837;61;1993;-87
2023/07/20 07:43:52;0.00;0.00;0.62;0.00;0.00;0.62;;;;;30.40;1.00;;;;;;2276931;61;1132;-86
2023/07/20 07:46:19;38015.00;0.13;66.45;0.00;0.00;0.62;;;;;30.10;1.00;;;;;;2276997;61;986;-88
2023/07/20 07:48:48;0.00;0.00;0.62;0.00;0.00;0.62;;;;;29.80;1.00;;;;;;2276918;61;1676;-88
2023/07/20 07:51:15;0.00;0.00;0.62;0.00;0.00;0.62;;;;;30.20;1.00;;;;;;2276909;61;1312;-88
2023/07/20 07:53:42;43327.00;0.14;75.64;0.00;0.00;0.62;;;;;31.10;1.00;;;;;;2276861;61;1071;-86
2023/07/20 07:56:09;0.00;0.00;0.62;0.00;0.00;0.62;;;;;31.70;1.00;;;;;;2276873;61;2173;-85
2023/07/20 07:58:36;251144.00;0.84;433.92;17482.00;0.06;30.91;;;;;31.80;1.00;;;;;;2276916;61;1189;-84
2023/07/20 08:01:03;154081.00;0.51;266.84;0.00;0.00;0.62;;;;;32.60;1.00;;;;;;2276863;61;1999;-86
2023/07/20 08:03:30;73429.00;0.24;127.69;0.00;0.00;0.62;;;;;33.20;1.00;;;;;;2276689;61;2103;-85
2023/07/20 08:05:58;1560368.00;5.20;2757.24;99285.00;0.33;172.34;;;;;33.90;1.00;;;;;;2276837;61;1125;-86
2023/07/20 08:08:25;1028407.00;3.43;1782.85;73657.00;0.25;128.08;;;;;34.60;1.00;;;;;;2276891;61;1163;-87
2023/07/20 08:10:55;250040.00;0.83;432.02;61610.00;0.21;107.26;;;;;34.40;1.00;;;;;;2276878;61;1029;-85
2023/07/20 08:13:22;214290.00;0.71;370.52;61390.00;0.20;106.88;;;;;34.10;1.00;;;;;;2276755;61;1341;-87
2023/07/20 08:15:52;169417.00;0.56;293.26;61924.00;0.21;107.80;;;;;34.60;1.00;;;;;;2276801;61;1088;-86
2023/07/20 08:18:19;509903.00;1.70;878.88;94270.00;0.31;163.68;;;;;34.00;1.00;;;;;;2276856;61;2246;-86
2023/07/20 08:20:46;0.00;0.00;0.62;0.00;0.00;0.62;;;;;34.10;1.00;;;;;;2276847;61;1907;-86
2023/07/20 08:23:14;27455.00;0.09;48.18;0.00;0.00;0.62;;;;;33.60;1.00;;;;;;2276749;61;1287;-87
2023/07/20 08:25:43;0.00;0.00;0.62;0.00;0.00;0.62;;;;;34.10;1.00;;;;;;2276755;61;1142;-86
2023/07/20 08:28:11;73237.00;0.24;127.35;0.00;0.00;0.62;;;;;35.00;1.00;;;;;;2276757;61;1213;-86
2023/07/20 08:30:42;142840.00;0.48;247.47;0.00;0.00;0.62;;;;;35.50;1.00;;;;;;2276721;61;2109;-85
2023/07/20 08:33:09;22147.00;0.07;38.99;0.00;0.00;0.62;;;;;35.00;1.00;;;;;;2276650;61;1294;-85
2023/07/20 08:35:36;0.00;0.00;0.62;0.00;0.00;0.62;;;;;34.90;1.00;;;;;;2276840;61;1134;-87
2023/07/20 08:38:04;266292.00;0.89;459.97;24717.00;0.08;43.44;;;;;34.50;1.00;;;;;;2276774;61;1118;-87
2023/07/20 08:40:32;295716.00;0.99;510.56;21612.00;0.07;38.06;;;;;34.30;1.00;;;;;;2276679;61;2326;-87
2023/07/20 08:43:01;1356230.00;4.52;2375.39;58009.00;0.19;101.03;;;;;34.00;1.00;;;;;;2276669;61;1433;-87
2023/07/20 08:45:29;822656.00;2.74;1420.66;42677.00;0.14;74.52;;;;;34.60;1.00;;;;;;2276749;61;1055;-86
2023/07/20 08:47:59;893876.00;2.98;1545.37;80779.00;0.27;140.38;;;;;34.50;1.00;;;;;;2276736;61;1146;-87
2023/07/20 08:50:28;119789792.00;399.30;69632448.00;68413.00;0.23;119.02;;;;;33.70;1.00;;;;;;2276706;61;981;-87
2023/07/20 08:52:58;410858.00;1.37;708.47;96990.00;0.32;168.38;;;;;33.70;1.00;;;;;;2276693;61;1309;-87
2023/07/20 08:55:26;352086.00;1.17;607.45;121828.00;0.41;211.24;;;;;33.20;1.00;;;;;;2276733;61;1188;-86
2023/07/20 08:57:56;162778.00;0.54;281.83;60069.00;0.20;104.60;;;;;33.30;1.00;;;;;;2276683;61;2205;-86
2023/07/20 09:00:24;0.00;0.00;0.62;0.00;0.00;0.62;;;;;32.60;1.00;;;;;;2276642;61;2047;-86
2023/07/20 09:02:52;70461.00;0.23;122.56;0.00;0.00;0.62;;;;;32.10;1.00;;;;;;2276610;61;1355;-88
2023/07/20 09:05:19;200710.00;0.67;347.15;39852.00;0.13;69.63;;;;;32.50;1.00;;;;;;2276685;61;1118;-85
2023/07/20 09:07:46;216954.00;0.72;375.10;86982.00;0.29;151.10;;;;;32.70;1.00;;;;;;2276708;61;1215;-86
2023/07/20 09:10:14;0.00;0.00;0.62;0.00;0.00;0.62;;;;;32.50;1.00;;;;;;2276636;61;1083;-85
2023/07/20 09:12:42;19638.00;0.07;34.64;0.00;0.00;0.62;;;;;31.80;1.00;;;;;;2276565;61;1480;-84
2023/07/20 09:15:12;0.00;0.00;0.62;0.00;0.00;0.62;;;;;32.20;1.00;;;;;;2276660;61;2015;-85
2023/07/20 09:17:39;0.00;0.00;0.62;0.00;0.00;0.62;;;;;32.70;1.00;;;;;;2276688;61;1093;-86
2023/07/20 09:20:10;279197.00;0.93;482.16;12226.00;0.04;21.81;;;;;32.00;1.00;;;;;;2276575;61;1014;-86
2023/07/20 09:22:39;794994.00;2.65;1372.39;59543.00;0.20;103.69;;;;;31.60;1.00;;;;;;2276579;61;1920;-86
2023/07/20 09:25:08;1106850.00;3.69;1922.68;112817.00;0.38;195.69;;;;;31.50;1.00;;;;;;2276658;61;1137;-86
2023/07/20 09:27:38;170302.00;0.57;294.79;62483.00;0.21;108.77;;;;;31.70;1.00;;;;;;2276508;61;1183;-87
2023/07/20 09:30:07;195813.00;0.65;338.72;49077.00;0.16;85.59;;;;;31.40;1.00;;;;;;2276576;61;1192;-88
2023/07/20 09:32:40;168168.00;0.56;291.11;62125.00;0.21;108.15;;;;;31.10;1.00;;;;;;2276601;61;1319;-87
2023/07/20 09:35:07;0.00;0.00;0.62;0.00;0.00;0.62;;;;;31.10;1.00;;;;;;2276542;61;2273;-84
2023/07/20 09:37:34;48277.00;0.16;84.21;0.00;0.00;0.62;;;;;30.60;1.00;;;;;;2276532;61;1134;-87
2023/07/20 09:40:02;0.00;0.00;0.62;0.00;0.00;0.62;;;;;30.50;1.00;;;;;;2276433;61;1030;-87
2023/07/20 09:42:29;0.00;0.00;0.62;0.00;0.00;0.62;;;;;30.60;1.00;;;;;;2276496;61;2006;-86
2023/07/20 09:44:57;243761.00;0.81;421.22;50840.00;0.17;88.64;;;;;30.60;1.00;;;;;;2276590;61;1055;-87
2023/07/20 09:47:25;1086779.00;3.62;1886.80;84884.00;0.28;147.47;;;;;31.30;1.00;;;;;;2276543;61;1156;-87
2023/07/20 09:49:59;969399.00;3.23;1678.35;95786.00;0.32;166.30;;;;;31.40;1.00;;;;;;2276586;61;1192;-86
2023/07/20 09:52:26;1067606.00;3.56;1852.59;131386.00;0.44;227.72;;;;;31.10;1.00;;;;;;2276480;61;1407;-87
2023/07/20 09:54:55;468955.00;1.56;808.39;101140.00;0.34;175.54;;;;;31.40;1.00;;;;;;2276564;61;1098;-87
2023/07/20 09:57:22;218240.00;0.73;377.32;63108.00;0.21;109.85;;;;;31.30;1.00;;;;;;2276514;61;2060;-85
2023/07/20 09:59:49;201344.00;0.67;348.24;59388.00;0.20;103.42;;;;;31.40;1.00;;;;;;2276405;61;1150;-86
2023/07/20 10:02:25;13364.00;0.04;23.78;0.00;0.00;0.62;;;;;31.40;1.00;;;;;;2276377;61;1917;-87
2023/07/20 10:04:56;0.00;0.00;0.62;0.00;0.00;0.62;;;;;31.20;1.00;;;;;;2276360;61;1697;-87
2023/07/20 10:07:25;0.00;0.00;0.62;0.00;0.00;0.62;;;;;31.00;1.00;;;;;;2276440;61;1102;-86
2023/07/20 10:09:55;0.00;0.00;0.62;0.00;0.00;0.62;;;;;30.90;1.00;;;;;;2276507;61;1084;-86
2023/07/20 10:12:23;695232.00;2.32;1198.97;87955.00;0.29;152.78;;;;;31.40;1.00;;;;;;2276346;61;1292;-87
2023/07/20 10:14:58;875083.00;2.92;1512.40;72711.00;0.24;126.44;;;;;31.40;1.00;;;;;;2276526;61;1146;-87
2023/07/20 10:17:27;276680.00;0.92;477.83;59204.00;0.20;103.10;;;;;31.50;1.00;;;;;;2276491;61;1107;-87
2023/07/20 10:19:57;0.00;0.00;0.62;0.00;0.00;0.62;;;;;31.20;1.00;;;;;;2276427;61;1874;-88
2023/07/20 10:22:27;0.00;0.00;0.62;0.00;0.00;0.62;;;;;30.80;1.00;;;;;;2276327;61;1931;-87
2023/07/20 10:24:58;0.00;0.00;0.62;0.00;0.00;0.62;;;;;30.60;1.00;;;;;;2276372;61;980;-86
2023/07/20 10:27:26;0.00;0.00;0.62;0.00;0.00;0.62;;;;;30.60;1.00;;;;;;2276394;61;1090;-85
2023/07/20 10:29:55;0.00;0.00;0.62;0.00;0.00;0.62;;;;;30.80;1.00;;;;;;2276410;61;1129;-85
2023/07/20 10:32:22;255857.00;0.85;442.02;103530.00;0.35;179.66;;;;;30.90;1.00;;;;;;2276231;61;1267;-86
2023/07/20 10:34:52;7012.00;0.02;12.77;0.00;0.00;0.62;;;;;30.70;1.00;;;;;;2276400;61;1106;-87
2023/07/20 10:37:49;0.00;0.00;0.62;0.00;0.00;0.62;;;;;30.50;1.00;;;;;;2276341;61;1142;-86
2023/07/20 10:40:30;9403.00;0.03;16.91;0.00;0.00;0.62;;;;;30.20;1.00;;;;;;2276423;61;1157;-86
2023/07/20 10:43:01;215595.00;0.72;372.76;0.00;0.00;0.62;;;;;30.60;1.00;;;;;;2276271;61;2045;-88
2023/07/20 10:45:50;0.00;0.00;0.62;0.00;0.00;0.62;;;;;30.90;1.00;;;;;;2276399;61;1062;-87
2023/07/20 10:48:20;0.00;0.00;0.62;0.00;0.00;0.62;;;;;31.20;1.00;;;;;;2276323;61;1539;-87
2023/07/20 10:51:06;0.00;0.00;0.62;0.00;0.00;0.62;;;;;31.10;1.00;;;;;;2276217;61;1174;-87
2023/07/20 10:53:34;0.00;0.00;0.62;0.00;0.00;0.62;;;;;30.50;1.00;;;;;;2276189;61;1113;-87
2023/07/20 10:56:09;0.00;0.00;0.62;0.00;0.00;0.62;;;;;30.50;1.00;;;;;;2276351;61;1086;-87
2023/07/20 10:58:36;353467.00;1.18;609.82;10352.00;0.03;18.56;;;;;30.90;1.00;;;;;;2276333;61;898;-87
2023/07/20 11:01:06;1012296.00;3.37;1754.26;94707.00;0.32;164.43;;;;;30.70;1.00;;;;;;2276284;61;1915;-88
2023/07/20 11:03:34;1625917.00;5.42;2882.37;89038.00;0.30;154.65;;;;;31.30;1.00;;;;;;2276328;61;1069;-87
2023/07/20 11:06:33;999221.00;3.33;1731.09;112059.00;0.37;194.38;;;;;31.20;1.00;;;;;;2276309;61;1147;-87
2023/07/20 11:09:06;340247.00;1.13;587.10;20110.00;0.07;35.46;;;;;31.00;1.00;;;;;;2276321;61;1329;-87
2023/07/20 11:11:35;156557.00;0.52;271.11;20224.00;0.07;35.66;;;;;31.20;1.00;;;;;;2276257;61;2704;-86
2023/07/20 11:14:03;992712.00;3.31;1719.57;90702.00;0.30;157.52;;;;;30.90;1.00;;;;;;2276259;61;1067;-88
2023/07/20 11:16:38;1190424.00;3.97;2072.92;87581.00;0.29;152.13;;;;;31.10;1.00;;;;;;2276219;61;989;-88
2023/07/20 11:19:07;566744.00;1.89;976.83;41729.00;0.14;72.88;;;;;31.30;1.00;;;;;;2276407;61;1117;-87
2023/07/20 11:21:39;167486.00;0.56;289.94;63551.00;0.21;110.62;;;;;31.10;1.00;;;;;;2276308;61;1996;-87
2023/07/20 11:24:07;0.00;0.00;0.62;0.00;0.00;0.62;;;;;31.30;1.00;;;;;;2276386;61;2275;-88
2023/07/20 11:26:47;0.00;0.00;0.62;0.00;0.00;0.62;;;;;31.30;1.00;;;;;;2276345;61;1121;-88
2023/07/20 11:29:16;0.00;0.00;0.62;0.00;0.00;0.62;;;;;31.10;1.00;;;;;;2276364;61;1171;-87
2023/07/20 11:31:44;0.00;0.00;0.62;0.00;0.00;0.62;;;;;31.00;1.00;;;;;;2276272;61;1402;-86
2023/07/20 11:34:13;129501.00;0.43;224.47;0.00;0.00;0.62;;;;;30.70;1.00;;;;;;2276351;61;1042;-87
2023/07/20 11:36:42;191743.00;0.64;331.71;0.00;0.00;0.62;;;;;30.70;1.00;;;;;;2276271;61;1119;-87
2023/07/20 11:39:11;0.00;0.00;0.62;0.00;0.00;0.62;;;;;30.30;1.00;;;;;;2276271;61;1102;-85
2023/07/20 11:41:39;68646.00;0.23;119.42;0.00;0.00;0.62;;;;;30.40;1.00;;;;;;2276126;61;2060;-85
2023/07/20 11:44:07;0.00;0.00;0.62;0.00;0.00;0.62;;;;;30.50;1.00;;;;;;2276186;61;1588;-86
2023/07/20 11:46:35;0.00;0.00;0.62;0.00;0.00;0.62;;;;;30.10;1.00;;;;;;2276220;61;1063;-86
2023/07/20 11:49:02;0.00;0.00;0.62;0.00;0.00;0.62;;;;;30.60;1.00;;;;;;2276243;61;1019;-86
2023/07/20 11:51:30;248588.00;0.83;429.52;0.00;0.00;0.62;;;;;30.80;1.00;;;;;;2276311;61;1423;-86
2023/07/20 11:53:59;673185.00;2.24;1160.77;28820.00;0.10;50.54;;;;;31.00;1.00;;;;;;2283906;55;3911;-88
2023/07/20 11:56:27;299756.00;1.00;517.50;0.00;0.00;0.62;;;;;31.00;1.00;;;;;;2276314;61;1056;-89
2023/07/20 11:58:59;414120.00;1.38;714.08;0.00;0.00;0.62;;;;;31.20;1.00;;;;;;2276088;61;1439;-88
2023/07/20 12:01:28;231964.00;0.77;400.93;0.00;0.00;0.62;;;;;31.20;1.00;;;;;;2283725;40;3592;-88
2023/07/20 12:03:56;314533.00;1.05;542.90;0.00;0.00;0.62;;;;;31.20;1.00;;;;;;2276978;61;1070;-88
2023/07/20 12:06:25;525600.00;1.75;905.91;0.00;0.00;0.62;;;;;31.20;1.00;;;;;;2276947;61;1204;-89
2023/07/20 12:08:56;195142.00;0.65;337.56;9661.00;0.03;17.36;;;;;31.10;1.00;;;;;;2276941;61;1164;-89
2023/07/20 12:11:37;165472.00;0.55;286.47;26047.00;0.09;45.74;;;;;30.90;1.00;;;;;;2276895;61;1386;-87
2023/07/20 12:14:05;0.00;0.00;0.62;0.00;0.00;0.62;;;;;30.90;1.00;;;;;;2276981;61;1108;-88
2023/07/20 12:16:32;38792.00;0.13;67.80;0.00;0.00;0.62;;;;;31.00;1.00;;;;;;2276893;61;1599;-88
2023/07/20 12:19:02;0.00;0.00;0.62;0.00;0.00;0.62;;;;;31.10;1.00;;;;;;2276951;61;1192;-88
2023/07/20 12:21:29;66490.00;0.22;115.69;0.00;0.00;0.62;;;;;31.40;1.00;;;;;;2276771;61;1924;-87
2023/07/20 12:23:58;42054.00;0.14;73.44;0.00;0.00;0.62;;;;;31.50;1.00;;;;;;2276925;61;1063;-88
2023/07/20 12:26:25;230888.00;0.77;399.08;36007.00;0.12;62.98;;;;;31.30;1.00;;;;;;2276773;61;986;-89
2023/07/20 12:28:53;125130.00;0.42;216.93;0.00;0.00;0.62;;;;;31.00;1.00;;;;;;2276813;61;1552;-88
2023/07/20 12:31:22;0.00;0.00;0.62;0.00;0.00;0.62;;;;;30.70;1.00;;;;;;2276772;61;2179;-90
2023/07/20 12:33:49;22652.00;0.08;39.86;0.00;0.00;0.62;;;;;30.70;1.00;;;;;;2276790;61;960;-88
2023/07/20 12:36:17;0.00;0.00;0.62;0.00;0.00;0.62;;;;;30.60;1.00;;;;;;2276828;61;1056;-88
2023/07/20 12:38:44;114870.00;0.38;199.23;0.00;0.00;0.62;;;;;30.80;1.00;;;;;;2276850;61;1060;-89
2023/07/20 12:41:13;248658.00;0.83;429.64;40057.00;0.13;69.99;;;;;31.00;1.00;;;;;;2276731;61;1250;-88
2023/07/20 12:43:41;71760.00;0.24;124.80;0.00;0.00;0.62;;;;;31.50;1.00;;;;;;2276767;61;1927;-88
2023/07/20 12:46:10;440702.00;1.47;759.79;20514.00;0.07;36.16;;;;;31.50;1.00;;;;;;2276851;61;1135;-89
2023/07/20 12:48:40;152797.00;0.51;264.63;0.00;0.00;0.62;;;;;31.20;1.00;;;;;;2365563;40;3720;-88
2023/07/20 12:53:44;1393521.00;4.65;2444.31;0.00;0.00;0.62;;;;;30.60;1.00;;;;;;2278316;61;1484;-87
2023/07/20 12:56:11;245773.00;0.82;424.68;13866.00;0.05;24.65;;;;;30.00;1.00;;;;;;2276488;61;1681;-87
2023/07/20 13:06:06;1311781.00;4.37;2293.68;0.00;0.00;0.62;;;;;30.00;1.00;;;;;;2273801;61;1381;-85
2023/07/20 13:08:33;363811.00;1.21;627.60;25497.00;0.08;44.79;;;;;29.20;1.00;;;;;;2298275;55;3744;-87
2023/07/20 13:11:00;1540701.00;5.14;2719.94;172035.00;0.57;297.77;;;;;29.30;1.00;;;;;;2282436;60;1402;-89
2023/07/20 13:13:29;228325.00;0.76;394.67;0.00;0.00;0.62;;;;;29.90;1.00;;;;;;2280653;60;1329;-86
2023/07/20 13:15:57;230401.00;0.77;398.24;0.00;0.00;0.62;;;;;30.40;1.00;;;;;;2280472;60;1664;-90
2023/07/20 13:18:24;342423.00;1.14;590.84;14583.00;0.05;25.89;;;;;30.60;1.00;;;;;;2279829;60;1009;-87
2023/07/20 13:20:53;412275.00;1.37;710.91;22397.00;0.07;39.42;;;;;30.90;1.00;;;;;;2303564;56;3781;-86
2023/07/20 13:23:30;431245.00;1.44;743.53;0.00;0.00;0.62;;;;;31.20;1.00;;;;;;2319796;56;3855;-88
2023/07/20 13:26:04;173751.00;0.58;300.73;0.00;0.00;0.62;;;;;31.00;1.00;;;;;;2280648;60;1560;-89
2023/07/20 13:28:37;160109.00;0.53;277.23;0.00;0.00;0.62;;;;;31.00;1.00;;;;;;2280568;60;1544;-89
2023/07/20 13:31:04;175544.00;0.59;303.82;70258.00;0.23;122.21;;;;;30.70;1.00;;;;;;2280675;60;1264;-87
2023/07/20 13:33:33;148763.00;0.50;257.68;0.00;0.00;0.62;;;;;30.50;1.00;;;;;;2276570;60;1653;-88
2023/07/20 13:36:00;214443.00;0.71;370.78;0.00;0.00;0.62;;;;;30.70;1.00;;;;;;2276465;60;1460;-87
2023/07/20 13:38:34;129906.00;0.43;225.17;0.00;0.00;0.62;;;;;31.20;1.00;;;;;;2276532;60;1561;-88
2023/07/20 13:41:03;178029.00;0.59;308.10;0.00;0.00;0.62;;;;;30.40;1.00;;;;;;2276482;60;1066;-91
2023/07/20 13:43:32;192984.00;0.64;333.85;0.00;0.00;0.62;;;;;30.10;1.00;;;;;;2276299;60;2002;-90
2023/07/20 13:46:05;261727.00;0.87;452.12;0.00;0.00;0.62;;;;;29.30;1.00;;;;;;2276463;60;1734;-89
2023/07/20 13:48:39;353317.00;1.18;609.56;48649.00;0.16;84.85;;;;;29.70;1.00;;;;;;2276499;60;1658;-89
2023/07/20 13:51:06;159645.00;0.53;276.43;0.00;0.00;0.62;;;;;30.30;1.00;;;;;;2276469;60;1566;-88
2023/07/20 13:53:41;268474.00;0.89;463.72;0.00;0.00;0.62;;;;;30.70;1.00;;;;;;2276479;60;1469;-87
2023/07/20 13:56:21;41276.00;0.14;72.10;0.00;0.00;0.62;;;;;30.50;1.00;;;;;;2276471;60;1031;-88
2023/07/20 13:58:56;196114.00;0.65;339.23;0.00;0.00;0.62;;;;;30.60;1.00;;;;;;2276479;60;1099;-88
2023/07/20 14:01:30;204919.00;0.68;354.39;0.00;0.00;0.62;;;;;30.70;1.00;;;;;;2276518;60;1434;-87
2023/07/20 14:04:04;159800.00;0.53;276.69;0.00;0.00;0.62;;;;;30.50;1.00;;;;;;2276406;60;1927;-90
2023/07/20 14:06:38;300638.00;1.00;519.02;0.00;0.00;0.62;;;;;30.20;1.00;;;;;;2276444;60;1640;-89
2023/07/20 14:19:09;528854.00;1.76;911.52;0.00;0.00;0.62;;;;;31.00;1.00;;;;;;2277845;61;1446;-88
2023/07/20 14:21:48;167198.00;0.56;289.44;0.00;0.00;0.62;;;;;31.00;1.00;;;;;;2276167;61;1470;-89
2023/07/20 14:24:17;113520.00;0.38;196.90;0.00;0.00;0.62;;;;;30.90;1.00;;;;;;2276246;61;1947;-90
2023/07/20 14:26:48;281624.00;0.94;486.33;0.00;0.00;0.62;;;;;30.50;1.00;;;;;;2276246;61;1433;-89
2023/07/20 14:29:15;274680.00;0.92;474.39;65614.00;0.22;114.18;;;;;30.20;1.00;;;;;;2276201;61;1626;-89
2023/07/20 14:31:42;496378.00;1.65;855.59;97657.00;0.33;169.53;;;;;30.10;1.00;;;;;;2276019;61;1563;-88
2023/07/20 14:34:14;471999.00;1.57;813.63;30786.00;0.10;53.94;;;;;29.70;1.00;;;;;;2276214;61;1761;-89
2023/07/20 14:36:44;436697.00;1.46;752.90;53948.00;0.18;94.01;;;;;29.70;1.00;;;;;;2276266;61;1096;-89
2023/07/20 14:39:11;456281.00;1.52;786.59;63148.00;0.21;109.92;;;;;30.00;1.00;;;;;;2276177;61;1114;-88
2023/07/20 14:41:40;387675.00;1.29;668.62;65359.00;0.22;113.74;;;;;30.20;1.00;;;;;;2276157;61;1428;-88